INFORMACIÓN METAR y TAF
METAR FOR LEBL
ADDS - METARS form results

(1853 UTC 29 January 2020)
Data provider http://aviationweather.gov/metar/data/
 
METAR text: LEBL 291830Z 36002KT CAVOK 13/11 Q1021 NOSIG
Conditions at: LEBL (BARCELONA AIRPOR, ES) observed 1830 UTC 29 January 2020
Temperature: 13.0°C (55°F)
Dewpoint: 11.0°C (52°F) [RH = 88%]
Pressure (altimeter): 30.15 inches Hg (1021.0 mb)
Winds: from the N (360 degrees) at 2 MPH (2 knots; 1.0 m/s)
Visibility: 6 or more miles (10+ km)
Ceiling: ceiling and visibility are OK
Clouds: unknown
Weather: no significant weather observed at this time

METAR text: LEBL 291800Z 36003KT CAVOK 13/10 Q1021 NOSIG
Conditions at: LEBL (BARCELONA AIRPOR, ES) observed 1800 UTC 29 January 2020
Temperature: 13.0°C (55°F)
Dewpoint: 10.0°C (50°F) [RH = 82%]
Pressure (altimeter): 30.15 inches Hg (1021.0 mb)
Winds: from the N (360 degrees) at 3 MPH (3 knots; 1.5 m/s)
Visibility: 6 or more miles (10+ km)
Ceiling: ceiling and visibility are OK
Clouds: unknown
Weather: no significant weather observed at this time

Forecast for: LEBL (BARCELONA AIRPOR, ES)
Text: TAF LEBL 291700Z 2918/3018 VRB03KT 9999 FEW040 TX18/3013Z TN09/3007Z
Forecast period: 1800 UTC 29 January 2020 to 1200 UTC 30 January 2020
Forecast type: FROM: standard forecast or significant change
Winds: variable direction winds at 3 MPH (3 knots; 1.5 m/s)
Visibility: 6 or more miles 10+ km)
Ceiling: at least 12,000 feet AGL
Clouds: few clouds at 4000 feet AGL
Weather: no significant weather forecast for this period
Text: TEMPO 3006/3010 34010G20KT
Forecast period: 0600 to 1000 UTC 30 January 2020
Forecast type: TEMPORARY: The following changes expected for less than half the time period
Winds: from the NNW (340 degrees) at 12 MPH (10 knots; 5.1 m/s)
gusting to 23 MPH (20 knots; 10.3 m/s)
Visibility: missing
Ceiling: unknown
Clouds: missing
Weather: no significant weather forecast for this period
Text: BECMG 3012/3014 34010KT
Forecast period: 1200 to 1800 UTC 30 January 2020
Forecast type: BECOMING: Conditions expected to become as follows by 1400 UTC 30 January 2020
Winds: from the NNW (340 degrees) at 12 MPH (10 knots; 5.1 m/s)
Visibility: 6 or more miles 10+ km)
Ceiling: at least 12,000 feet AGL
Clouds: few clouds at 4000 feet AGL
Weather: no significant weather forecast for this period

 MAPA DE AEROPUERTO

 INFORMACIÓN DE PISTA

 FRECUANCIAS DEL AEROPUERTO
Tipo APP Nombre APP Frecuencia 119.1 MHZ
Tipo ATIS Nombre ATIS Frecuencia 118.65 MHZ
Tipo CLD Nombre CLNC DEL Frecuencia 121.8 MHZ
Tipo GND Nombre GND Frecuencia 121.65 MHZ
Tipo TWR Nombre TWR Frecuencia 118.1 MHZ

 RADIO AYUDAS DEL AEROPUERTO
Tipo VOR-DME Nombre Barcelona Frecuencia 116700 KHZ
Tipo VOR-DME Nombre El Prat Frecuencia 114300 KHZ
Tipo VOR-DME Nombre Sabadell Frecuencia 112000 KHZ
Tipo NDB Nombre Villanueva Frecuencia 380 KHZ